createdAt,value
2022-11-24T00:00:14.935Z,69.72
2022-11-24T00:02:48.455Z,69.74
2022-11-24T00:05:23.060Z,69.61
2022-11-24T00:07:56.543Z,69.66
2022-11-24T00:10:31.515Z,69.61
2022-11-24T00:13:04.987Z,69.78
2022-11-24T00:15:38.444Z,69.71
2022-11-24T00:18:11.972Z,69.72
2022-11-24T00:20:53.109Z,69.92
2022-11-24T00:23:26.941Z,69.92
2022-11-24T00:26:08.029Z,69.91
2022-11-24T00:28:42.484Z,69.95
2022-11-24T00:31:19.362Z,69.83
2022-11-24T00:33:55.203Z,69.95
2022-11-24T00:36:32.741Z,69.86
2022-11-24T00:39:08.751Z,69.91
2022-11-24T00:41:44.283Z,70.07
2022-11-24T00:44:17.756Z,69.95
2022-11-24T00:46:51.479Z,70.15
2022-11-24T00:49:27.558Z,70.05
2022-11-24T00:52:01.194Z,70.04
2022-11-24T00:54:35.096Z,70.16
2022-11-24T00:57:10.286Z,70.10
2022-11-24T00:59:43.788Z,70.05
2022-11-24T01:02:17.408Z,70.09
2022-11-24T01:04:51.046Z,69.88
2022-11-24T01:07:24.570Z,69.83
2022-11-24T01:09:58.139Z,69.89
2022-11-24T01:12:33.303Z,69.81
2022-11-24T01:15:07.869Z,69.90
2022-11-24T01:17:41.433Z,69.92
2022-11-24T01:20:15.118Z,69.87
2022-11-24T01:22:50.259Z,69.71
2022-11-24T01:25:23.795Z,69.72
2022-11-24T01:27:58.751Z,69.63
2022-11-24T01:30:32.262Z,69.53
2022-11-24T01:33:05.981Z,69.54
2022-11-24T01:35:41.042Z,69.38
2022-11-24T01:38:14.789Z,69.56
2022-11-24T01:40:51.278Z,69.44
2022-11-24T01:43:28.061Z,69.43
2022-11-24T01:46:08.022Z,69.49
2022-11-24T01:48:45.005Z,69.44
2022-11-24T01:51:23.845Z,69.46
2022-11-24T01:54:02.429Z,69.15
2022-11-24T01:56:40.251Z,69.36
2022-11-24T01:59:17.452Z,69.08
2022-11-24T02:01:53.247Z,69.15
2022-11-24T02:04:32.116Z,69.29
2022-11-24T02:07:08.785Z,69.11
2022-11-24T02:09:47.065Z,69.06
2022-11-24T02:12:20.612Z,69.04
2022-11-24T02:14:56.564Z,69.02
2022-11-24T02:17:30.115Z,69.10
2022-11-24T02:20:06.559Z,68.89
2022-11-24T02:22:49.188Z,69.05
2022-11-24T02:25:35.815Z,69.31
2022-11-24T02:28:15.421Z,69.13
2022-11-24T02:30:49.493Z,68.87
2022-11-24T02:33:25.412Z,68.69
2022-11-24T02:35:58.978Z,68.81
2022-11-24T02:38:33.952Z,68.71
2022-11-24T02:41:11.342Z,69.21
2022-11-24T02:43:51.303Z,68.87
2022-11-24T02:46:25.013Z,69.02
2022-11-24T02:48:58.727Z,69.03
2022-11-24T02:51:34.558Z,68.87
2022-11-24T02:54:08.182Z,68.91
2022-11-24T02:56:41.809Z,68.75
2022-11-24T02:59:16.729Z,69.03
2022-11-24T03:01:53.057Z,68.92
2022-11-24T03:04:26.626Z,68.95
2022-11-24T03:07:00.212Z,68.87
2022-11-24T03:09:35.992Z,69.05
2022-11-24T03:12:09.640Z,68.99
2022-11-24T03:14:44.470Z,69.22
2022-11-24T03:17:18.047Z,68.94
2022-11-24T03:19:51.607Z,68.95
2022-11-24T03:22:25.197Z,68.97
2022-11-24T03:24:58.944Z,68.94
2022-11-24T03:27:32.911Z,69.10
2022-11-24T03:30:09.508Z,69.03
2022-11-24T03:32:43.277Z,69.13
2022-11-24T03:35:16.983Z,69.01
2022-11-24T03:37:50.388Z,68.86
2022-11-24T03:40:24.092Z,68.79
2022-11-24T03:42:57.740Z,69.09
2022-11-24T03:45:48.057Z,69.02
2022-11-24T03:48:22.459Z,69.07
2022-11-24T03:50:57.310Z,69.21
2022-11-24T03:53:32.209Z,69.26
2022-11-24T03:56:07.043Z,69.16
2022-11-24T03:58:40.582Z,69.11
2022-11-24T04:01:15.583Z,69.31
2022-11-24T04:03:49.079Z,69.23
2022-11-24T04:06:22.636Z,69.26
2022-11-24T04:08:56.283Z,69.18
2022-11-24T04:11:47.321Z,69.46
2022-11-24T04:14:21.166Z,69.27
2022-11-24T04:16:56.033Z,69.36
2022-11-24T04:19:29.692Z,69.43
2022-11-24T04:22:03.284Z,69.25
2022-11-24T04:24:36.950Z,69.28
2022-11-24T04:27:10.419Z,69.24
2022-11-24T04:29:43.957Z,69.36
2022-11-24T04:32:19.209Z,69.07
2022-11-24T04:34:52.746Z,69.19
2022-11-24T04:37:26.359Z,69.11
2022-11-24T04:39:59.962Z,69.22
2022-11-24T04:42:33.579Z,69.14
2022-11-24T04:45:08.583Z,69.29
2022-11-24T04:47:43.656Z,69.16
2022-11-24T04:50:17.863Z,69.14
2022-11-24T04:52:51.538Z,69.25
2022-11-24T04:55:25.049Z,69.04
2022-11-24T04:57:58.697Z,69.01
2022-11-24T05:00:35.262Z,69.11
2022-11-24T05:03:10.442Z,69.25
2022-11-24T05:05:44.127Z,69.16
2022-11-24T05:08:17.752Z,69.18
2022-11-24T05:10:51.324Z,69.15
2022-11-24T05:13:25.392Z,69.15
2022-11-24T05:16:00.031Z,68.98
2022-11-24T05:18:35.321Z,69.06
2022-11-24T05:21:08.922Z,69.01
2022-11-24T05:23:42.598Z,69.02
2022-11-24T05:26:16.235Z,69.05
2022-11-24T05:28:49.942Z,69.00
2022-11-24T05:31:23.568Z,69.13
2022-11-24T05:33:58.563Z,69.03
2022-11-24T05:36:49.798Z,69.24
2022-11-24T05:39:24.116Z,69.23
2022-11-24T05:41:57.555Z,68.90
2022-11-24T05:44:31.468Z,69.11
2022-11-24T05:47:05.234Z,69.22
2022-11-24T05:49:40.383Z,69.11
2022-11-24T05:52:14.262Z,69.23
2022-11-24T05:54:47.938Z,69.17
2022-11-24T05:57:21.519Z,69.16
2022-11-24T05:59:55.106Z,69.13
2022-11-24T06:02:28.959Z,69.26
2022-11-24T06:05:03.732Z,69.07
2022-11-24T06:07:37.396Z,68.93
2022-11-24T06:10:11.392Z,69.11
2022-11-24T06:12:44.887Z,69.11
2022-11-24T06:15:18.794Z,68.97
2022-11-24T06:17:56.394Z,69.20
2022-11-24T06:20:32.891Z,69.06
2022-11-24T06:23:07.023Z,69.09
2022-11-24T06:25:41.030Z,69.03
2022-11-24T06:28:14.435Z,69.07
2022-11-24T06:30:48.467Z,69.06
2022-11-24T06:33:22.002Z,69.32
2022-11-24T06:36:02.368Z,69.29
2022-11-24T06:38:37.149Z,69.07
2022-11-24T06:41:14.902Z,69.13
2022-11-24T06:43:48.561Z,69.12
2022-11-24T06:46:22.684Z,69.01
2022-11-24T06:48:55.866Z,68.82
2022-11-24T06:51:30.989Z,68.96
2022-11-24T06:54:08.441Z,68.98
2022-11-24T06:56:41.997Z,68.92
2022-11-24T06:59:20.342Z,68.83
2022-11-24T07:01:54.169Z,68.95
2022-11-24T07:04:27.649Z,69.02
2022-11-24T07:07:03.752Z,68.84
2022-11-24T07:09:37.328Z,68.92
2022-11-24T07:12:10.818Z,69.04
2022-11-24T07:14:44.526Z,68.79
2022-11-24T07:17:18.189Z,68.90
2022-11-24T07:19:51.787Z,68.87
2022-11-24T07:22:27.096Z,69.00
2022-11-24T07:25:00.881Z,68.85
2022-11-24T07:27:35.106Z,68.81
2022-11-24T07:30:12.741Z,68.81
2022-11-24T07:32:46.400Z,68.81
2022-11-24T07:35:20.074Z,68.84
2022-11-24T07:37:57.743Z,68.88
2022-11-24T07:40:31.424Z,68.83
2022-11-24T07:43:05.015Z,68.68
2022-11-24T07:45:39.008Z,68.70
2022-11-24T07:48:12.598Z,68.39
2022-11-24T07:50:49.911Z,68.33
2022-11-24T07:53:27.811Z,68.39
2022-11-24T07:56:03.141Z,68.22
2022-11-24T07:58:41.063Z,68.40
2022-11-24T08:01:19.151Z,68.64
2022-11-24T08:03:52.795Z,68.24
2022-11-24T08:06:40.854Z,68.33
2022-11-24T08:09:22.102Z,68.45
2022-11-24T08:11:58.618Z,68.26
2022-11-24T08:14:32.427Z,68.32
2022-11-24T08:17:05.828Z,68.12
2022-11-24T08:19:39.638Z,67.96
2022-11-24T08:22:13.281Z,68.08
2022-11-24T08:24:49.390Z,67.90
2022-11-24T08:27:23.172Z,68.12
2022-11-24T08:30:01.085Z,68.02
2022-11-24T08:32:34.726Z,68.10
2022-11-24T08:35:14.723Z,68.06
2022-11-24T08:37:51.426Z,68.14
2022-11-24T08:40:26.732Z,68.33
2022-11-24T08:43:00.277Z,68.06
2022-11-24T08:45:39.727Z,68.21
2022-11-24T08:48:14.845Z,68.12
2022-11-24T08:50:48.642Z,68.14
2022-11-24T08:53:22.368Z,68.13
2022-11-24T08:56:03.026Z,68.00
2022-11-24T08:58:37.564Z,67.96
2022-11-24T09:01:14.235Z,67.92
2022-11-24T09:03:51.159Z,67.92
2022-11-24T09:06:27.176Z,68.01
2022-11-24T09:09:01.199Z,67.79
2022-11-24T09:11:36.644Z,68.07
2022-11-24T09:14:10.264Z,67.86
2022-11-24T09:16:44.025Z,67.81
2022-11-24T09:19:17.575Z,67.79
2022-11-24T09:21:51.651Z,68.00
2022-11-24T09:24:25.505Z,68.06
2022-11-24T09:27:03.098Z,67.83
2022-11-24T09:29:36.888Z,67.83
2022-11-24T09:32:10.573Z,67.57
2022-11-24T09:34:46.805Z,67.62
2022-11-24T09:37:20.624Z,67.65
2022-11-24T09:39:54.244Z,67.76
2022-11-24T09:42:39.066Z,67.76
2022-11-24T09:45:41.626Z,67.65
2022-11-24T09:48:25.706Z,67.67
2022-11-24T09:51:02.193Z,67.54
2022-11-24T09:53:39.408Z,67.46
2022-11-24T09:56:23.911Z,67.53
2022-11-24T09:59:04.129Z,67.43
2022-11-24T10:01:43.559Z,67.20
2022-11-24T10:04:21.073Z,67.28
2022-11-24T10:07:02.961Z,67.14
2022-11-24T10:09:57.382Z,67.04
2022-11-24T10:12:51.316Z,66.91
2022-11-24T10:15:32.686Z,66.77
2022-11-24T10:18:38.361Z,67.08
2022-11-24T10:21:29.618Z,67.07
2022-11-24T10:24:24.716Z,67.08
2022-11-24T10:27:04.028Z,67.06
2022-11-24T10:29:42.268Z,66.89
2022-11-24T10:32:20.595Z,67.00
2022-11-24T10:34:57.394Z,66.82
2022-11-24T10:37:36.704Z,66.84
2022-11-24T10:40:55.487Z,67.08
2022-11-24T10:43:17.881Z,66.98
2022-11-24T10:45:52.116Z,67.09
2022-11-24T10:48:30.393Z,67.31
2022-11-24T10:51:40.510Z,67.08
2022-11-24T10:54:18.312Z,67.22
2022-11-24T10:56:57.214Z,67.30
2022-11-24T10:59:38.820Z,67.31
2022-11-24T11:02:34.489Z,67.27
2022-11-24T11:05:38.148Z,67.21
2022-11-24T11:08:21.297Z,67.10
2022-11-24T11:11:16.007Z,67.12
2022-11-24T11:14:01.563Z,66.99
2022-11-24T11:16:38.488Z,66.79
2022-11-24T11:19:48.820Z,66.88
2022-11-24T11:22:31.451Z,66.88
2022-11-24T11:25:16.185Z,67.03
2022-11-24T11:27:50.353Z,66.93
2022-11-24T11:36:19.575Z,66.81
2022-11-24T11:38:55.206Z,66.72
2022-11-24T11:41:33.843Z,66.68
2022-11-24T11:44:18.807Z,66.58
2022-11-24T11:46:53.013Z,66.76
2022-11-24T11:49:26.779Z,66.61
2022-11-24T11:52:19.726Z,66.30
2022-11-24T11:55:14.989Z,66.78
2022-11-24T11:57:56.495Z,66.65
2022-11-24T12:00:35.360Z,66.63
2022-11-24T12:03:43.327Z,66.67
2022-11-24T12:06:30.234Z,66.42
2022-11-24T12:09:21.041Z,66.41
2022-11-24T12:12:14.469Z,66.30
2022-11-24T12:15:08.965Z,66.46
2022-11-24T12:17:49.174Z,66.40
2022-11-24T12:20:38.801Z,66.49
2022-11-24T12:23:23.941Z,66.52
2022-11-24T12:26:08.446Z,66.69
2022-11-24T12:28:53.930Z,66.66
2022-11-24T12:31:33.879Z,66.44
2022-11-24T12:34:25.584Z,66.45
2022-11-24T12:37:14.070Z,66.51
2022-11-24T12:39:54.924Z,66.36
2022-11-24T12:42:40.343Z,66.51
2022-11-24T12:45:17.990Z,66.44
2022-11-24T12:48:20.038Z,66.29
2022-11-24T12:51:01.836Z,66.27
2022-11-24T12:53:38.344Z,66.33
2022-11-24T12:56:15.828Z,66.18
2022-11-24T12:58:53.977Z,66.23
2022-11-24T13:01:38.459Z,66.12
2022-11-24T13:04:20.180Z,66.17
2022-11-24T13:07:01.287Z,66.09
2022-11-24T13:09:34.961Z,66.18
2022-11-24T13:12:14.222Z,66.22
2022-11-24T13:14:50.191Z,66.03
2022-11-24T13:17:36.344Z,66.20
2022-11-24T13:20:27.537Z,66.28
2022-11-24T13:23:03.645Z,66.34
2022-11-24T13:25:38.080Z,66.05
2022-11-24T13:29:01.764Z,66.19
2022-11-24T13:31:41.350Z,66.01
2022-11-24T13:34:32.745Z,65.92
2022-11-24T13:37:31.327Z,66.00
2022-11-24T13:40:59.850Z,66.10
2022-11-24T13:43:38.079Z,66.25
2022-11-24T13:46:11.967Z,66.33
2022-11-24T13:49:01.324Z,66.40
2022-11-24T13:51:35.207Z,66.28
2022-11-24T13:54:12.493Z,66.42
2022-11-24T13:56:46.301Z,66.65
2022-11-24T13:59:29.888Z,66.59
2022-11-24T14:02:19.722Z,66.66
2022-11-24T14:04:53.381Z,66.37
2022-11-24T14:07:27.262Z,66.69
2022-11-24T14:10:03.729Z,66.55
2022-11-24T14:12:37.510Z,66.77
2022-11-24T14:15:26.577Z,66.71
2022-11-24T14:18:00.538Z,66.81
2022-11-24T14:20:34.203Z,67.01
2022-11-24T14:23:11.579Z,66.90
2022-11-24T14:25:50.997Z,66.99
2022-11-24T14:28:27.303Z,67.08
2022-11-24T14:31:22.086Z,67.08
2022-11-24T14:34:16.546Z,67.02
2022-11-24T14:36:50.839Z,67.09
2022-11-24T14:39:26.293Z,67.15
2022-11-24T14:42:05.142Z,67.44
2022-11-24T14:44:48.295Z,67.39
2022-11-24T14:47:30.923Z,67.24
2022-11-24T14:50:15.861Z,67.43
2022-11-24T14:52:53.748Z,67.00
2022-11-24T14:55:29.491Z,67.56
2022-11-24T14:58:20.654Z,67.29
2022-11-24T15:01:10.495Z,67.40
2022-11-24T15:03:44.093Z,67.44
2022-11-24T15:06:24.329Z,67.55
2022-11-24T15:08:57.920Z,67.63
2022-11-24T15:11:32.531Z,67.65
2022-11-24T15:14:42.276Z,67.67
2022-11-24T15:17:21.227Z,67.62
2022-11-24T15:19:59.846Z,67.67
2022-11-24T15:22:41.782Z,67.78
2022-11-24T15:25:35.694Z,67.91
2022-11-24T15:28:13.238Z,67.75
2022-11-24T15:30:54.465Z,67.71
2022-11-24T15:33:28.560Z,67.70
2022-11-24T15:36:02.547Z,67.89
2022-11-24T15:38:36.283Z,67.93
2022-11-24T15:41:20.582Z,68.25
2022-11-24T15:43:59.050Z,67.69
2022-11-24T15:46:38.283Z,67.70
2022-11-24T15:49:12.125Z,67.96
2022-11-24T15:51:47.625Z,67.91
2022-11-24T15:54:21.426Z,67.98
2022-11-24T15:56:55.152Z,68.34
2022-11-24T15:59:28.730Z,67.98
2022-11-24T16:02:03.812Z,68.22
2022-11-24T16:04:39.236Z,68.27
2022-11-24T16:07:13.988Z,68.27
2022-11-24T16:09:47.554Z,68.38
2022-11-24T16:12:21.169Z,68.45
2022-11-24T16:14:54.726Z,68.22
2022-11-24T16:17:29.852Z,68.28
2022-11-24T16:20:06.478Z,68.33
2022-11-24T16:22:40.020Z,68.59
2022-11-24T16:25:14.061Z,68.62
2022-11-24T16:27:47.555Z,68.48
2022-11-24T16:30:21.961Z,68.60
2022-11-24T16:32:57.008Z,68.61
2022-11-24T16:35:30.652Z,68.72
2022-11-24T16:38:06.578Z,68.88
2022-11-24T16:40:40.144Z,68.68
2022-11-24T16:43:13.638Z,68.79
2022-11-24T16:45:47.196Z,68.69
2022-11-24T16:48:22.077Z,68.82
2022-11-24T16:50:55.584Z,68.94
2022-11-24T16:53:31.770Z,68.81
2022-11-24T16:56:05.683Z,68.85
2022-11-24T16:58:40.171Z,68.93
2022-11-24T17:01:15.130Z,68.61
2022-11-24T17:03:50.209Z,68.84
2022-11-24T17:06:24.527Z,68.64
2022-11-24T17:08:58.031Z,68.81
2022-11-24T17:11:31.639Z,68.71
2022-11-24T17:14:06.050Z,68.87
2022-11-24T17:16:39.902Z,68.92
2022-11-24T17:19:14.936Z,68.87
2022-11-24T17:21:48.372Z,68.86
2022-11-24T17:24:21.925Z,68.82
2022-11-24T17:26:55.559Z,68.63
2022-11-24T17:29:30.215Z,68.64
2022-11-24T17:32:03.820Z,68.78
2022-11-24T17:34:39.031Z,68.64
2022-11-24T17:37:12.850Z,68.82
2022-11-24T17:39:59.996Z,68.91
2022-11-24T17:42:40.089Z,68.65
2022-11-24T17:45:13.814Z,68.87
2022-11-24T17:47:47.511Z,69.02
2022-11-24T17:50:26.394Z,69.16
2022-11-24T17:53:00.149Z,69.09
2022-11-24T17:55:35.352Z,69.12
2022-11-24T17:58:08.859Z,69.18
2022-11-24T18:00:44.904Z,69.16
2022-11-24T18:03:21.472Z,69.43
2022-11-24T18:05:56.866Z,69.38
2022-11-24T18:08:30.356Z,69.66
2022-11-24T18:11:08.163Z,69.59
2022-11-24T18:13:58.517Z,69.53
2022-11-24T18:16:36.151Z,69.58
2022-11-24T18:19:13.062Z,69.56
2022-11-24T18:21:48.243Z,69.63
2022-11-24T18:24:24.196Z,69.63
2022-11-24T18:26:58.027Z,69.48
2022-11-24T18:29:31.834Z,69.45
2022-11-24T18:32:05.913Z,69.53
2022-11-24T18:34:39.438Z,69.45
2022-11-24T18:37:16.498Z,69.51
2022-11-24T18:39:50.059Z,69.38
2022-11-24T18:42:25.787Z,69.44
2022-11-24T18:44:59.382Z,69.41
2022-11-24T18:47:35.363Z,69.55
2022-11-24T18:50:12.974Z,69.60
2022-11-24T18:52:47.884Z,69.65
2022-11-24T18:55:21.475Z,69.56
2022-11-24T18:57:56.244Z,69.41
2022-11-24T19:00:29.931Z,69.68
2022-11-24T19:03:03.556Z,69.45
2022-11-24T19:05:37.320Z,69.49
2022-11-24T19:08:12.379Z,69.46
2022-11-24T19:10:45.900Z,69.57
2022-11-24T19:13:19.620Z,69.43
2022-11-24T19:15:53.329Z,69.35
2022-11-24T19:18:27.200Z,69.57
2022-11-24T19:21:00.701Z,69.46
2022-11-24T19:23:38.077Z,69.46
2022-11-24T19:26:14.091Z,69.33
2022-11-24T19:28:47.749Z,69.36
2022-11-24T19:31:21.926Z,69.43
2022-11-24T19:33:55.491Z,69.41
2022-11-24T19:36:29.176Z,69.28
2022-11-24T19:39:05.355Z,69.53
2022-11-24T19:41:39.229Z,69.42
2022-11-24T19:44:13.949Z,69.54
2022-11-24T19:46:47.698Z,69.34
2022-11-24T19:49:21.218Z,69.35
2022-11-24T19:51:54.920Z,69.47
2022-11-24T19:54:29.950Z,69.57
2022-11-24T19:57:03.664Z,69.50
2022-11-24T19:59:37.402Z,69.19
2022-11-24T20:02:12.753Z,69.21
2022-11-24T20:04:46.469Z,69.34
2022-11-24T20:07:20.624Z,69.60
2022-11-24T20:09:55.736Z,69.75
2022-11-24T20:12:29.222Z,69.80
2022-11-24T20:15:02.883Z,69.95
2022-11-24T20:17:36.450Z,69.70
2022-11-24T20:20:10.484Z,69.79
2022-11-24T20:22:43.662Z,69.54
2022-11-24T20:25:20.310Z,69.60
2022-11-24T20:27:53.824Z,69.87
2022-11-24T20:30:27.358Z,69.83
2022-11-24T20:33:01.325Z,69.87
2022-11-24T20:35:34.499Z,69.65
2022-11-24T20:38:08.089Z,69.76
2022-11-24T20:40:42.964Z,69.84
2022-11-24T20:43:16.433Z,70.00
2022-11-24T20:45:49.976Z,69.69
2022-11-24T20:48:23.478Z,69.95
2022-11-24T20:51:02.497Z,70.10
2022-11-24T20:53:38.195Z,70.09
2022-11-24T20:56:18.893Z,70.39
2022-11-24T20:58:57.702Z,70.27
2022-11-24T21:01:35.179Z,70.46
2022-11-24T21:04:11.091Z,70.51
2022-11-24T21:06:44.705Z,70.53
2022-11-24T21:09:18.901Z,70.34
2022-11-24T21:11:54.921Z,70.44
2022-11-24T21:14:32.481Z,70.55
2022-11-24T21:17:08.845Z,70.46
2022-11-24T21:19:42.376Z,70.60
2022-11-24T21:22:16.095Z,70.56
2022-11-24T21:24:50.427Z,70.66
2022-11-24T21:27:25.385Z,70.59
2022-11-24T21:29:58.904Z,70.69
2022-11-24T21:32:32.432Z,70.53
2022-11-24T21:35:06.568Z,70.65
2022-11-24T21:37:40.109Z,70.78
2022-11-24T21:40:15.743Z,70.57
2022-11-24T21:42:50.676Z,70.84
2022-11-24T21:45:24.347Z,70.86
2022-11-24T21:47:58.108Z,70.85
2022-11-24T21:50:31.924Z,70.91
2022-11-24T21:53:05.406Z,70.70
2022-11-24T21:55:38.861Z,70.79
2022-11-24T21:58:14.027Z,70.77
2022-11-24T22:00:47.548Z,70.63
2022-11-24T22:03:21.957Z,70.79
2022-11-24T22:05:56.045Z,70.88
2022-11-24T22:08:32.754Z,70.66
2022-11-24T22:11:07.367Z,70.40
2022-11-24T22:13:44.878Z,70.19
2022-11-24T22:16:22.722Z,70.23
2022-11-24T22:18:56.201Z,70.37
2022-11-24T22:21:35.745Z,70.41
2022-11-24T22:24:21.796Z,70.40
2022-11-24T22:26:59.499Z,70.46
2022-11-24T22:29:41.827Z,70.40
2022-11-24T22:32:21.346Z,70.47
2022-11-24T22:34:55.130Z,70.49
2022-11-24T22:37:28.677Z,70.33
2022-11-24T22:40:02.232Z,70.41
2022-11-24T22:42:35.661Z,70.45
2022-11-24T22:45:11.818Z,70.33
2022-11-24T22:47:45.251Z,70.39
2022-11-24T22:50:18.952Z,70.37
2022-11-24T22:52:52.685Z,70.19
2022-11-24T22:55:26.120Z,70.15
2022-11-24T22:57:59.531Z,70.08
2022-11-24T23:00:34.484Z,70.20
2022-11-24T23:03:08.086Z,70.39
2022-11-24T23:05:41.597Z,70.19
2022-11-24T23:08:15.091Z,70.34
2022-11-24T23:10:48.667Z,70.38
2022-11-24T23:13:22.143Z,70.40
2022-11-24T23:16:01.513Z,70.25
2022-11-24T23:18:35.948Z,70.10
2022-11-24T23:21:12.859Z,70.36
2022-11-24T23:23:47.002Z,70.12
2022-11-24T23:26:22.337Z,70.20
2022-11-24T23:28:55.807Z,70.26
2022-11-24T23:31:30.868Z,70.15
2022-11-24T23:34:05.330Z,70.28
2022-11-24T23:36:38.897Z,70.31
2022-11-24T23:39:14.526Z,70.42
2022-11-24T23:41:48.004Z,70.50
2022-11-24T23:44:22.236Z,70.51
2022-11-24T23:46:57.090Z,70.67
2022-11-24T23:49:31.025Z,70.76
2022-11-24T23:52:04.485Z,70.68
2022-11-24T23:54:37.928Z,71.01
2022-11-24T23:57:11.372Z,71.16
2022-11-24T23:59:44.775Z,71.14
